sensor_id;sensor_type;location;lat;lon;timestamp;temperature;humidity
25811;DHT22;13645;52.460;13.910;2023-07-29T00:01:57;18.00;99.90
25811;DHT22;13645;52.460;13.910;2023-07-29T00:04:36;18.00;99.90
25811;DHT22;13645;52.460;13.910;2023-07-29T00:07:08;18.00;99.90
25811;DHT22;13645;52.460;13.910;2023-07-29T00:09:34;18.00;99.90
25811;DHT22;13645;52.460;13.910;2023-07-29T00:12:01;18.00;99.90
25811;DHT22;13645;52.460;13.910;2023-07-29T00:14:34;17.90;99.90
25811;DHT22;13645;52.460;13.910;2023-07-29T00:17:01;17.90;99.90
25811;DHT22;13645;52.460;13.910;2023-07-29T00:19:28;17.90;99.90
25811;DHT22;13645;52.460;13.910;2023-07-29T00:21:56;17.80;99.90
25811;DHT22;13645;52.460;13.910;2023-07-29T00:24:23;17.70;99.90
25811;DHT22;13645;52.460;13.910;2023-07-29T00:26:50;17.70;99.90
25811;DHT22;13645;52.460;13.910;2023-07-29T00:29:19;17.70;99.90
25811;DHT22;13645;52.460;13.910;2023-07-29T00:31:46;17.70;99.90
25811;DHT22;13645;52.460;13.910;2023-07-29T00:34:13;17.60;99.90
25811;DHT22;13645;52.460;13.910;2023-07-29T00:36:45;17.60;99.90
25811;DHT22;13645;52.460;13.910;2023-07-29T00:39:12;17.60;99.90
25811;DHT22;13645;52.460;13.910;2023-07-29T00:41:39;17.60;99.90
25811;DHT22;13645;52.460;13.910;2023-07-29T00:44:07;17.40;99.90
25811;DHT22;13645;52.460;13.910;2023-07-29T00:46:36;17.50;99.90
25811;DHT22;13645;52.460;13.910;2023-07-29T00:49:14;17.40;99.90
25811;DHT22;13645;52.460;13.910;2023-07-29T00:51:41;17.40;99.90
25811;DHT22;13645;52.460;13.910;2023-07-29T00:54:08;17.40;99.90
25811;DHT22;13645;52.460;13.910;2023-07-29T00:56:35;17.40;99.90
25811;DHT22;13645;52.460;13.910;2023-07-29T00:59:03;17.40;99.90
25811;DHT22;13645;52.460;13.910;2023-07-29T01:01:31;17.30;99.90
25811;DHT22;13645;52.460;13.910;2023-07-29T01:03:58;17.30;99.90
25811;DHT22;13645;52.460;13.910;2023-07-29T01:17:00;17.20;99.90
25811;DHT22;13645;52.460;13.910;2023-07-29T01:22:13;17.20;99.90
25811;DHT22;13645;52.460;13.910;2023-07-29T01:24:40;17.10;99.90
25811;DHT22;13645;52.460;13.910;2023-07-29T01:27:07;17.10;99.90
25811;DHT22;13645;52.460;13.910;2023-07-29T01:29:37;17.10;99.90
25811;DHT22;13645;52.460;13.910;2023-07-29T01:32:11;17.00;99.90
25811;DHT22;13645;52.460;13.910;2023-07-29T01:35:03;17.00;99.90
25811;DHT22;13645;52.460;13.910;2023-07-29T01:37:34;17.00;99.90
25811;DHT22;13645;52.460;13.910;2023-07-29T01:40:08;17.00;99.90
25811;DHT22;13645;52.460;13.910;2023-07-29T01:42:35;17.00;99.90
25811;DHT22;13645;52.460;13.910;2023-07-29T01:45:03;16.90;99.90
25811;DHT22;13645;52.460;13.910;2023-07-29T01:47:31;16.90;99.90
25811;DHT22;13645;52.460;13.910;2023-07-29T01:49:59;16.90;99.90
25811;DHT22;13645;52.460;13.910;2023-07-29T01:52:27;16.90;99.90
25811;DHT22;13645;52.460;13.910;2023-07-29T01:54:54;16.90;99.90
25811;DHT22;13645;52.460;13.910;2023-07-29T01:57:21;16.90;99.90
25811;DHT22;13645;52.460;13.910;2023-07-29T01:59:48;16.80;99.90
25811;DHT22;13645;52.460;13.910;2023-07-29T02:02:15;16.80;99.90
25811;DHT22;13645;52.460;13.910;2023-07-29T02:04:45;16.70;99.90
25811;DHT22;13645;52.460;13.910;2023-07-29T02:07:18;16.70;99.90
25811;DHT22;13645;52.460;13.910;2023-07-29T02:09:45;16.60;99.90
25811;DHT22;13645;52.460;13.910;2023-07-29T02:12:12;16.60;99.90
25811;DHT22;13645;52.460;13.910;2023-07-29T02:14:40;16.50;99.90
25811;DHT22;13645;52.460;13.910;2023-07-29T02:17:06;16.50;99.90
25811;DHT22;13645;52.460;13.910;2023-07-29T02:19:35;16.50;99.90
25811;DHT22;13645;52.460;13.910;2023-07-29T02:22:02;16.50;99.90
25811;DHT22;13645;52.460;13.910;2023-07-29T02:24:30;16.50;99.90
25811;DHT22;13645;52.460;13.910;2023-07-29T02:26:57;16.40;99.90
25811;DHT22;13645;52.460;13.910;2023-07-29T02:29:24;16.40;99.90
25811;DHT22;13645;52.460;13.910;2023-07-29T02:31:52;16.40;99.90
25811;DHT22;13645;52.460;13.910;2023-07-29T02:34:19;16.40;99.90
25811;DHT22;13645;52.460;13.910;2023-07-29T02:36:46;16.40;99.90
25811;DHT22;13645;52.460;13.910;2023-07-29T02:39:13;16.40;99.90
25811;DHT22;13645;52.460;13.910;2023-07-29T02:41:42;16.30;99.90
25811;DHT22;13645;52.460;13.910;2023-07-29T02:44:11;16.30;99.90
25811;DHT22;13645;52.460;13.910;2023-07-29T02:46:39;16.30;99.90
25811;DHT22;13645;52.460;13.910;2023-07-29T02:49:06;16.30;99.90
25811;DHT22;13645;52.460;13.910;2023-07-29T02:51:34;16.30;99.90
25811;DHT22;13645;52.460;13.910;2023-07-29T02:54:01;16.20;99.90
25811;DHT22;13645;52.460;13.910;2023-07-29T02:56:28;16.20;99.90
25811;DHT22;13645;52.460;13.910;2023-07-29T02:58:57;16.20;99.90
25811;DHT22;13645;52.460;13.910;2023-07-29T03:01:24;16.10;99.90
25811;DHT22;13645;52.460;13.910;2023-07-29T03:03:54;16.10;99.90
25811;DHT22;13645;52.460;13.910;2023-07-29T03:06:23;16.10;99.90
25811;DHT22;13645;52.460;13.910;2023-07-29T03:08:53;16.00;99.90
25811;DHT22;13645;52.460;13.910;2023-07-29T03:11:22;16.00;99.90
25811;DHT22;13645;52.460;13.910;2023-07-29T03:13:49;16.00;99.90
25811;DHT22;13645;52.460;13.910;2023-07-29T03:16:17;16.00;99.90
25811;DHT22;13645;52.460;13.910;2023-07-29T03:18:45;15.90;99.90
25811;DHT22;13645;52.460;13.910;2023-07-29T03:21:12;15.90;99.90
25811;DHT22;13645;52.460;13.910;2023-07-29T03:23:39;15.90;99.90
25811;DHT22;13645;52.460;13.910;2023-07-29T03:26:08;16.00;99.90
25811;DHT22;13645;52.460;13.910;2023-07-29T03:28:42;15.90;99.90
25811;DHT22;13645;52.460;13.910;2023-07-29T03:31:09;15.80;99.90
25811;DHT22;13645;52.460;13.910;2023-07-29T03:33:37;15.80;99.90
25811;DHT22;13645;52.460;13.910;2023-07-29T03:36:04;15.70;99.90
25811;DHT22;13645;52.460;13.910;2023-07-29T03:38:31;15.70;99.90
25811;DHT22;13645;52.460;13.910;2023-07-29T03:41:00;15.60;99.90
25811;DHT22;13645;52.460;13.910;2023-07-29T03:43:28;15.50;99.90
25811;DHT22;13645;52.460;13.910;2023-07-29T03:45:59;15.40;99.90
25811;DHT22;13645;52.460;13.910;2023-07-29T03:48:28;15.50;99.90
25811;DHT22;13645;52.460;13.910;2023-07-29T03:51:01;15.50;99.90
25811;DHT22;13645;52.460;13.910;2023-07-29T03:53:31;15.50;99.90
25811;DHT22;13645;52.460;13.910;2023-07-29T03:55:58;15.50;99.90
25811;DHT22;13645;52.460;13.910;2023-07-29T03:58:25;15.50;99.90
25811;DHT22;13645;52.460;13.910;2023-07-29T04:00:55;15.60;99.90
25811;DHT22;13645;52.460;13.910;2023-07-29T04:03:22;15.60;99.90
25811;DHT22;13645;52.460;13.910;2023-07-29T04:05:49;15.70;99.90
25811;DHT22;13645;52.460;13.910;2023-07-29T04:08:16;15.70;99.90
25811;DHT22;13645;52.460;13.910;2023-07-29T04:10:43;15.70;99.90
25811;DHT22;13645;52.460;13.910;2023-07-29T04:13:10;15.80;99.90
25811;DHT22;13645;52.460;13.910;2023-07-29T04:15:42;15.80;99.90
25811;DHT22;13645;52.460;13.910;2023-07-29T04:18:11;15.80;99.90
25811;DHT22;13645;52.460;13.910;2023-07-29T04:20:42;15.80;99.90
25811;DHT22;13645;52.460;13.910;2023-07-29T04:23:10;15.80;99.90
25811;DHT22;13645;52.460;13.910;2023-07-29T04:25:37;15.90;99.90
25811;DHT22;13645;52.460;13.910;2023-07-29T04:28:04;15.90;99.90
25811;DHT22;13645;52.460;13.910;2023-07-29T04:30:32;16.00;99.90
25811;DHT22;13645;52.460;13.910;2023-07-29T04:33:01;16.10;99.90
25811;DHT22;13645;52.460;13.910;2023-07-29T04:35:30;16.10;99.90
25811;DHT22;13645;52.460;13.910;2023-07-29T04:37:57;16.20;99.90
25811;DHT22;13645;52.460;13.910;2023-07-29T04:40:24;16.30;99.90
25811;DHT22;13645;52.460;13.910;2023-07-29T04:42:51;16.30;99.90
25811;DHT22;13645;52.460;13.910;2023-07-29T04:45:18;16.50;99.90
25811;DHT22;13645;52.460;13.910;2023-07-29T04:47:45;16.60;99.90
25811;DHT22;13645;52.460;13.910;2023-07-29T04:50:12;16.80;99.90
25811;DHT22;13645;52.460;13.910;2023-07-29T04:52:39;16.80;99.90
25811;DHT22;13645;52.460;13.910;2023-07-29T04:55:06;17.00;99.90
25811;DHT22;13645;52.460;13.910;2023-07-29T04:57:33;17.00;99.90
25811;DHT22;13645;52.460;13.910;2023-07-29T05:00:00;17.10;99.90
25811;DHT22;13645;52.460;13.910;2023-07-29T05:02:28;17.30;99.90
25811;DHT22;13645;52.460;13.910;2023-07-29T05:04:55;17.40;99.90
25811;DHT22;13645;52.460;13.910;2023-07-29T05:07:22;17.40;99.90
25811;DHT22;13645;52.460;13.910;2023-07-29T05:09:49;17.50;99.90
25811;DHT22;13645;52.460;13.910;2023-07-29T05:12:17;17.50;99.90
25811;DHT22;13645;52.460;13.910;2023-07-29T05:14:44;17.50;99.90
25811;DHT22;13645;52.460;13.910;2023-07-29T05:17:11;17.60;99.90
25811;DHT22;13645;52.460;13.910;2023-07-29T05:19:39;17.70;99.90
25811;DHT22;13645;52.460;13.910;2023-07-29T05:22:06;17.80;99.90
25811;DHT22;13645;52.460;13.910;2023-07-29T05:24:33;17.80;99.90
25811;DHT22;13645;52.460;13.910;2023-07-29T05:27:00;17.90;99.90
25811;DHT22;13645;52.460;13.910;2023-07-29T05:29:26;17.90;99.90
25811;DHT22;13645;52.460;13.910;2023-07-29T05:31:53;18.00;99.90
25811;DHT22;13645;52.460;13.910;2023-07-29T05:34:23;18.10;99.90
25811;DHT22;13645;52.460;13.910;2023-07-29T05:36:53;18.20;99.90
25811;DHT22;13645;52.460;13.910;2023-07-29T05:39:21;18.10;99.90
25811;DHT22;13645;52.460;13.910;2023-07-29T05:41:48;18.10;99.90
25811;DHT22;13645;52.460;13.910;2023-07-29T05:44:15;18.20;99.90
25811;DHT22;13645;52.460;13.910;2023-07-29T05:46:42;18.40;99.90
25811;DHT22;13645;52.460;13.910;2023-07-29T05:49:09;18.40;99.90
25811;DHT22;13645;52.460;13.910;2023-07-29T05:51:37;18.50;99.90
25811;DHT22;13645;52.460;13.910;2023-07-29T05:54:05;18.60;99.90
25811;DHT22;13645;52.460;13.910;2023-07-29T05:56:32;18.60;99.90
25811;DHT22;13645;52.460;13.910;2023-07-29T05:58:59;18.80;99.90
25811;DHT22;13645;52.460;13.910;2023-07-29T06:01:26;18.90;99.90
25811;DHT22;13645;52.460;13.910;2023-07-29T06:03:52;19.00;99.90
25811;DHT22;13645;52.460;13.910;2023-07-29T06:06:19;19.20;99.90
25811;DHT22;13645;52.460;13.910;2023-07-29T06:08:46;19.30;99.90
25811;DHT22;13645;52.460;13.910;2023-07-29T06:11:13;19.40;99.90
25811;DHT22;13645;52.460;13.910;2023-07-29T06:13:39;19.40;99.90
25811;DHT22;13645;52.460;13.910;2023-07-29T06:16:06;19.30;99.90
25811;DHT22;13645;52.460;13.910;2023-07-29T06:18:33;19.30;99.90
25811;DHT22;13645;52.460;13.910;2023-07-29T06:21:00;19.20;99.90
25811;DHT22;13645;52.460;13.910;2023-07-29T06:23:26;19.20;99.90
25811;DHT22;13645;52.460;13.910;2023-07-29T06:25:53;19.30;99.90
25811;DHT22;13645;52.460;13.910;2023-07-29T06:28:20;19.40;99.90
25811;DHT22;13645;52.460;13.910;2023-07-29T06:30:47;19.40;99.90
25811;DHT22;13645;52.460;13.910;2023-07-29T06:33:14;19.60;99.90
25811;DHT22;13645;52.460;13.910;2023-07-29T06:35:41;19.70;99.90
25811;DHT22;13645;52.460;13.910;2023-07-29T06:38:08;20.00;99.90
25811;DHT22;13645;52.460;13.910;2023-07-29T06:40:35;20.10;99.90
25811;DHT22;13645;52.460;13.910;2023-07-29T06:43:01;20.30;99.90
25811;DHT22;13645;52.460;13.910;2023-07-29T06:45:28;20.50;99.90
25811;DHT22;13645;52.460;13.910;2023-07-29T06:47:55;20.80;99.90
25811;DHT22;13645;52.460;13.910;2023-07-29T06:50:22;21.10;99.90
25811;DHT22;13645;52.460;13.910;2023-07-29T06:52:48;21.40;99.90
25811;DHT22;13645;52.460;13.910;2023-07-29T06:55:15;21.70;99.90
25811;DHT22;13645;52.460;13.910;2023-07-29T06:57:42;21.80;99.90
25811;DHT22;13645;52.460;13.910;2023-07-29T07:00:09;21.80;99.90
25811;DHT22;13645;52.460;13.910;2023-07-29T07:02:39;21.80;99.90
25811;DHT22;13645;52.460;13.910;2023-07-29T07:05:09;21.80;99.90
25811;DHT22;13645;52.460;13.910;2023-07-29T07:07:36;21.90;99.90
25811;DHT22;13645;52.460;13.910;2023-07-29T07:10:03;22.20;99.90
25811;DHT22;13645;52.460;13.910;2023-07-29T07:12:30;22.10;99.90
25811;DHT22;13645;52.460;13.910;2023-07-29T07:14:57;22.20;99.90
25811;DHT22;13645;52.460;13.910;2023-07-29T07:17:24;22.20;99.90
25811;DHT22;13645;52.460;13.910;2023-07-29T07:19:51;22.10;99.90
25811;DHT22;13645;52.460;13.910;2023-07-29T07:22:20;21.80;99.90
25811;DHT22;13645;52.460;13.910;2023-07-29T07:24:47;21.80;99.90
25811;DHT22;13645;52.460;13.910;2023-07-29T07:27:14;21.70;99.90
25811;DHT22;13645;52.460;13.910;2023-07-29T07:29:41;21.60;99.90
25811;DHT22;13645;52.460;13.910;2023-07-29T07:32:07;21.50;99.90
25811;DHT22;13645;52.460;13.910;2023-07-29T07:34:34;21.50;99.90
25811;DHT22;13645;52.460;13.910;2023-07-29T07:37:01;21.40;99.90
25811;DHT22;13645;52.460;13.910;2023-07-29T07:39:31;21.70;99.90
25811;DHT22;13645;52.460;13.910;2023-07-29T07:41:58;22.00;99.90
25811;DHT22;13645;52.460;13.910;2023-07-29T07:44:25;22.40;99.90
25811;DHT22;13645;52.460;13.910;2023-07-29T07:46:53;22.90;99.90
25811;DHT22;13645;52.460;13.910;2023-07-29T07:49:27;23.30;99.90
25811;DHT22;13645;52.460;13.910;2023-07-29T07:51:53;23.60;99.90
25811;DHT22;13645;52.460;13.910;2023-07-29T07:54:20;23.70;99.90
25811;DHT22;13645;52.460;13.910;2023-07-29T07:56:47;23.90;99.90
25811;DHT22;13645;52.460;13.910;2023-07-29T07:59:13;24.00;99.90
25811;DHT22;13645;52.460;13.910;2023-07-29T08:01:43;23.90;99.90
25811;DHT22;13645;52.460;13.910;2023-07-29T08:04:10;24.10;99.90
25811;DHT22;13645;52.460;13.910;2023-07-29T08:06:37;24.10;99.90
25811;DHT22;13645;52.460;13.910;2023-07-29T08:09:04;23.90;99.90
25811;DHT22;13645;52.460;13.910;2023-07-29T08:11:31;23.90;99.90
25811;DHT22;13645;52.460;13.910;2023-07-29T08:14:02;23.80;99.90
25811;DHT22;13645;52.460;13.910;2023-07-29T08:16:34;23.70;99.90
25811;DHT22;13645;52.460;13.910;2023-07-29T08:19:18;23.50;99.90
25811;DHT22;13645;52.460;13.910;2023-07-29T08:22:35;23.30;99.90
25811;DHT22;13645;52.460;13.910;2023-07-29T08:25:23;23.50;99.90
25811;DHT22;13645;52.460;13.910;2023-07-29T08:28:02;23.80;99.90
25811;DHT22;13645;52.460;13.910;2023-07-29T08:30:35;23.70;99.90
25811;DHT22;13645;52.460;13.910;2023-07-29T08:33:06;23.50;99.90
25811;DHT22;13645;52.460;13.910;2023-07-29T08:35:55;23.20;99.90
25811;DHT22;13645;52.460;13.910;2023-07-29T08:39:22;23.00;99.90
25811;DHT22;13645;52.460;13.910;2023-07-29T08:42:30;23.00;99.90
25811;DHT22;13645;52.460;13.910;2023-07-29T08:45:21;22.90;99.90
25811;DHT22;13645;52.460;13.910;2023-07-29T08:48:22;22.90;99.90
25811;DHT22;13645;52.460;13.910;2023-07-29T08:51:30;23.00;99.90
25811;DHT22;13645;52.460;13.910;2023-07-29T08:54:35;23.00;99.90
25811;DHT22;13645;52.460;13.910;2023-07-29T08:57:17;23.00;99.90
25811;DHT22;13645;52.460;13.910;2023-07-29T09:00:14;22.80;99.90
25811;DHT22;13645;52.460;13.910;2023-07-29T09:02:45;22.70;99.90
25811;DHT22;13645;52.460;13.910;2023-07-29T09:05:13;22.70;99.90
25811;DHT22;13645;52.460;13.910;2023-07-29T09:07:51;22.70;99.90
25811;DHT22;13645;52.460;13.910;2023-07-29T09:10:25;22.70;99.90
25811;DHT22;13645;52.460;13.910;2023-07-29T09:12:53;22.70;99.90
25811;DHT22;13645;52.460;13.910;2023-07-29T09:15:27;22.80;99.90
25811;DHT22;13645;52.460;13.910;2023-07-29T09:17:56;23.10;99.90
25811;DHT22;13645;52.460;13.910;2023-07-29T09:20:27;23.70;99.90
25811;DHT22;13645;52.460;13.910;2023-07-29T09:22:55;24.40;99.90
25811;DHT22;13645;52.460;13.910;2023-07-29T09:25:25;25.00;99.90
25811;DHT22;13645;52.460;13.910;2023-07-29T09:27:52;25.00;33.10
25811;DHT22;13645;52.460;13.910;2023-07-29T09:30:22;24.90;1.00
25811;DHT22;13645;52.460;13.910;2023-07-29T09:32:55;24.70;1.00
25811;DHT22;13645;52.460;13.910;2023-07-29T09:35:23;24.50;10.80
25811;DHT22;13645;52.460;13.910;2023-07-29T09:37:51;24.30;37.60
25811;DHT22;13645;52.460;13.910;2023-07-29T09:40:18;24.20;99.90
25811;DHT22;13645;52.460;13.910;2023-07-29T09:42:49;24.40;90.80
25811;DHT22;13645;52.460;13.910;2023-07-29T09:45:26;24.70;38.10
25811;DHT22;13645;52.460;13.910;2023-07-29T09:47:54;24.90;1.00
25811;DHT22;13645;52.460;13.910;2023-07-29T09:50:24;25.00;1.00
25811;DHT22;13645;52.460;13.910;2023-07-29T09:52:52;25.20;1.00
25811;DHT22;13645;52.460;13.910;2023-07-29T09:55:21;25.30;1.00
25811;DHT22;13645;52.460;13.910;2023-07-29T09:57:48;25.60;1.00
25811;DHT22;13645;52.460;13.910;2023-07-29T10:00:14;25.90;1.00
25811;DHT22;13645;52.460;13.910;2023-07-29T10:02:43;26.00;1.00
25811;DHT22;13645;52.460;13.910;2023-07-29T10:05:10;25.90;1.00
25811;DHT22;13645;52.460;13.910;2023-07-29T10:07:38;25.70;1.00
25811;DHT22;13645;52.460;13.910;2023-07-29T10:10:07;25.60;1.00
25811;DHT22;13645;52.460;13.910;2023-07-29T10:12:34;25.40;1.00
25811;DHT22;13645;52.460;13.910;2023-07-29T10:15:06;25.20;1.00
25811;DHT22;13645;52.460;13.910;2023-07-29T10:17:38;25.20;1.00
25811;DHT22;13645;52.460;13.910;2023-07-29T10:20:07;25.20;1.00
25811;DHT22;13645;52.460;13.910;2023-07-29T10:22:39;25.30;1.00
25811;DHT22;13645;52.460;13.910;2023-07-29T10:25:16;25.40;1.00
25811;DHT22;13645;52.460;13.910;2023-07-29T10:30:14;25.40;1.00
25811;DHT22;13645;52.460;13.910;2023-07-29T10:32:45;25.40;1.00
25811;DHT22;13645;52.460;13.910;2023-07-29T10:35:13;25.40;1.00
25811;DHT22;13645;52.460;13.910;2023-07-29T10:37:40;25.30;1.00
25811;DHT22;13645;52.460;13.910;2023-07-29T10:40:10;25.30;1.00
25811;DHT22;13645;52.460;13.910;2023-07-29T10:42:38;25.20;1.00
25811;DHT22;13645;52.460;13.910;2023-07-29T10:45:18;25.50;1.00
25811;DHT22;13645;52.460;13.910;2023-07-29T10:47:45;25.80;1.00
25811;DHT22;13645;52.460;13.910;2023-07-29T10:50:21;26.10;1.00
25811;DHT22;13645;52.460;13.910;2023-07-29T10:52:52;26.30;1.00
25811;DHT22;13645;52.460;13.910;2023-07-29T10:55:34;26.70;1.00
25811;DHT22;13645;52.460;13.910;2023-07-29T10:58:15;26.90;99.90
25811;DHT22;13645;52.460;13.910;2023-07-29T11:00:45;27.00;99.90
25811;DHT22;13645;52.460;13.910;2023-07-29T11:03:13;26.90;99.90
25811;DHT22;13645;52.460;13.910;2023-07-29T11:05:45;27.00;99.90
25811;DHT22;13645;52.460;13.910;2023-07-29T11:08:29;27.00;99.90
25811;DHT22;13645;52.460;13.910;2023-07-29T11:13:34;26.80;99.90
25811;DHT22;13645;52.460;13.910;2023-07-29T11:16:02;26.60;99.90
25811;DHT22;13645;52.460;13.910;2023-07-29T11:18:33;26.50;99.90
25811;DHT22;13645;52.460;13.910;2023-07-29T11:21:01;26.30;99.90
25811;DHT22;13645;52.460;13.910;2023-07-29T11:23:36;26.20;99.90
25811;DHT22;13645;52.460;13.910;2023-07-29T11:26:04;26.00;99.90
25811;DHT22;13645;52.460;13.910;2023-07-29T11:28:37;26.00;99.90
25811;DHT22;13645;52.460;13.910;2023-07-29T11:31:04;25.90;99.90
25811;DHT22;13645;52.460;13.910;2023-07-29T11:33:31;25.90;99.90
25811;DHT22;13645;52.460;13.910;2023-07-29T11:35:58;25.70;20.10
25811;DHT22;13645;52.460;13.910;2023-07-29T11:38:24;25.60;99.90
25811;DHT22;13645;52.460;13.910;2023-07-29T11:40:56;25.50;99.90
25811;DHT22;13645;52.460;13.910;2023-07-29T11:43:23;25.30;99.90
25811;DHT22;13645;52.460;13.910;2023-07-29T11:45:51;25.30;99.90
25811;DHT22;13645;52.460;13.910;2023-07-29T11:48:25;25.20;99.90
25811;DHT22;13645;52.460;13.910;2023-07-29T11:50:53;25.10;99.90
25811;DHT22;13645;52.460;13.910;2023-07-29T11:53:21;24.90;99.90
25811;DHT22;13645;52.460;13.910;2023-07-29T11:55:52;24.80;99.90
25811;DHT22;13645;52.460;13.910;2023-07-29T11:58:21;24.60;99.90
25811;DHT22;13645;52.460;13.910;2023-07-29T12:00:48;24.40;1.00
25811;DHT22;13645;52.460;13.910;2023-07-29T12:03:16;24.30;1.00
25811;DHT22;13645;52.460;13.910;2023-07-29T12:05:45;24.10;1.00
25811;DHT22;13645;52.460;13.910;2023-07-29T12:08:12;23.80;99.90
25811;DHT22;13645;52.460;13.910;2023-07-29T12:10:39;23.20;99.90
25811;DHT22;13645;52.460;13.910;2023-07-29T12:13:08;22.70;99.90
25811;DHT22;13645;52.460;13.910;2023-07-29T12:15:35;22.30;99.90
25811;DHT22;13645;52.460;13.910;2023-07-29T12:18:05;21.90;99.90
25811;DHT22;13645;52.460;13.910;2023-07-29T12:32:19;20.90;99.90
25811;DHT22;13645;52.460;13.910;2023-07-29T12:38:48;20.70;99.90
25811;DHT22;13645;52.460;13.910;2023-07-29T12:41:29;20.70;99.90
25811;DHT22;13645;52.460;13.910;2023-07-29T12:44:11;20.70;99.90
25811;DHT22;13645;52.460;13.910;2023-07-29T12:46:52;20.70;99.90
25811;DHT22;13645;52.460;13.910;2023-07-29T12:49:33;20.80;99.90
25811;DHT22;13645;52.460;13.910;2023-07-29T12:52:14;20.90;99.90
25811;DHT22;13645;52.460;13.910;2023-07-29T12:54:55;20.90;99.90
25811;DHT22;13645;52.460;13.910;2023-07-29T12:57:36;20.90;99.90
25811;DHT22;13645;52.460;13.910;2023-07-29T13:00:28;20.90;99.90
25811;DHT22;13645;52.460;13.910;2023-07-29T13:02:56;20.90;99.90
25811;DHT22;13645;52.460;13.910;2023-07-29T13:05:23;20.90;99.90
25811;DHT22;13645;52.460;13.910;2023-07-29T13:07:49;20.80;99.90
25811;DHT22;13645;52.460;13.910;2023-07-29T13:10:16;20.80;99.90
25811;DHT22;13645;52.460;13.910;2023-07-29T13:12:43;20.80;99.90
25811;DHT22;13645;52.460;13.910;2023-07-29T13:15:10;20.90;99.90
25811;DHT22;13645;52.460;13.910;2023-07-29T13:17:37;21.00;99.90
25811;DHT22;13645;52.460;13.910;2023-07-29T13:20:05;21.00;99.90
25811;DHT22;13645;52.460;13.910;2023-07-29T13:22:32;21.00;99.90
25811;DHT22;13645;52.460;13.910;2023-07-29T13:25:02;21.10;99.90
25811;DHT22;13645;52.460;13.910;2023-07-29T13:27:28;21.10;99.90
25811;DHT22;13645;52.460;13.910;2023-07-29T13:29:55;21.10;99.90
25811;DHT22;13645;52.460;13.910;2023-07-29T13:32:22;21.30;99.90
25811;DHT22;13645;52.460;13.910;2023-07-29T13:34:49;21.40;99.90
25811;DHT22;13645;52.460;13.910;2023-07-29T13:37:16;21.80;99.90
25811;DHT22;13645;52.460;13.910;2023-07-29T13:39:43;22.00;99.90
25811;DHT22;13645;52.460;13.910;2023-07-29T13:42:10;22.20;99.90
25811;DHT22;13645;52.460;13.910;2023-07-29T13:44:37;22.00;99.90
25811;DHT22;13645;52.460;13.910;2023-07-29T13:47:07;22.00;99.90
25811;DHT22;13645;52.460;13.910;2023-07-29T13:49:40;22.10;99.90
25811;DHT22;13645;52.460;13.910;2023-07-29T13:52:07;22.00;99.90
25811;DHT22;13645;52.460;13.910;2023-07-29T13:54:38;21.90;99.90
25811;DHT22;13645;52.460;13.910;2023-07-29T13:57:07;21.90;99.90
25811;DHT22;13645;52.460;13.910;2023-07-29T13:59:37;22.00;99.90
25811;DHT22;13645;52.460;13.910;2023-07-29T14:02:08;22.10;99.90
25811;DHT22;13645;52.460;13.910;2023-07-29T14:04:35;22.10;99.90
25811;DHT22;13645;52.460;13.910;2023-07-29T14:07:06;22.20;99.90
25811;DHT22;13645;52.460;13.910;2023-07-29T14:09:34;22.30;99.90
25811;DHT22;13645;52.460;13.910;2023-07-29T14:12:04;22.30;99.90
25811;DHT22;13645;52.460;13.910;2023-07-29T14:14:35;22.30;99.90
25811;DHT22;13645;52.460;13.910;2023-07-29T14:17:02;22.30;99.90
25811;DHT22;13645;52.460;13.910;2023-07-29T14:19:29;22.30;99.90
25811;DHT22;13645;52.460;13.910;2023-07-29T14:21:56;22.30;99.90
25811;DHT22;13645;52.460;13.910;2023-07-29T14:24:22;22.70;99.90
25811;DHT22;13645;52.460;13.910;2023-07-29T14:26:50;23.00;99.90
25811;DHT22;13645;52.460;13.910;2023-07-29T14:29:16;23.20;99.90
25811;DHT22;13645;52.460;13.910;2023-07-29T14:31:43;23.30;99.90
25811;DHT22;13645;52.460;13.910;2023-07-29T14:34:10;23.30;99.90
25811;DHT22;13645;52.460;13.910;2023-07-29T14:36:37;23.20;99.90
25811;DHT22;13645;52.460;13.910;2023-07-29T14:39:04;23.30;99.90
25811;DHT22;13645;52.460;13.910;2023-07-29T14:41:31;23.20;99.90
25811;DHT22;13645;52.460;13.910;2023-07-29T14:43:57;23.20;99.90
25811;DHT22;13645;52.460;13.910;2023-07-29T14:46:24;23.20;99.90
25811;DHT22;13645;52.460;13.910;2023-07-29T14:48:51;23.10;99.90
25811;DHT22;13645;52.460;13.910;2023-07-29T14:51:18;23.20;99.90
25811;DHT22;13645;52.460;13.910;2023-07-29T14:53:45;23.30;99.90
25811;DHT22;13645;52.460;13.910;2023-07-29T14:56:12;23.60;99.90
25811;DHT22;13645;52.460;13.910;2023-07-29T14:58:41;23.80;99.90
25811;DHT22;13645;52.460;13.910;2023-07-29T15:01:08;23.90;99.90
25811;DHT22;13645;52.460;13.910;2023-07-29T15:03:35;23.70;99.90
25811;DHT22;13645;52.460;13.910;2023-07-29T15:06:02;23.50;99.90
25811;DHT22;13645;52.460;13.910;2023-07-29T15:08:29;23.30;99.90
25811;DHT22;13645;52.460;13.910;2023-07-29T15:10:56;23.20;99.90
25811;DHT22;13645;52.460;13.910;2023-07-29T15:13:23;22.90;99.90
25811;DHT22;13645;52.460;13.910;2023-07-29T15:15:49;22.60;99.90
25811;DHT22;13645;52.460;13.910;2023-07-29T15:18:17;22.50;99.90
25811;DHT22;13645;52.460;13.910;2023-07-29T15:20:44;22.50;99.90
25811;DHT22;13645;52.460;13.910;2023-07-29T15:23:11;22.60;99.90
25811;DHT22;13645;52.460;13.910;2023-07-29T15:25:37;22.70;99.90
25811;DHT22;13645;52.460;13.910;2023-07-29T15:28:05;22.70;99.90
25811;DHT22;13645;52.460;13.910;2023-07-29T15:30:35;22.70;99.90
25811;DHT22;13645;52.460;13.910;2023-07-29T15:33:03;22.50;99.90
25811;DHT22;13645;52.460;13.910;2023-07-29T15:35:37;22.30;99.90
25811;DHT22;13645;52.460;13.910;2023-07-29T15:38:06;22.20;99.90
25811;DHT22;13645;52.460;13.910;2023-07-29T15:40:33;22.00;99.90
25811;DHT22;13645;52.460;13.910;2023-07-29T15:43:00;21.90;99.90
25811;DHT22;13645;52.460;13.910;2023-07-29T15:45:26;21.80;99.90
25811;DHT22;13645;52.460;13.910;2023-07-29T15:47:53;21.70;99.90
25811;DHT22;13645;52.460;13.910;2023-07-29T15:50:20;21.70;99.90
25811;DHT22;13645;52.460;13.910;2023-07-29T15:52:47;21.60;99.90
25811;DHT22;13645;52.460;13.910;2023-07-29T15:55:13;21.60;99.90
25811;DHT22;13645;52.460;13.910;2023-07-29T15:57:40;21.60;99.90
25811;DHT22;13645;52.460;13.910;2023-07-29T16:00:08;21.60;99.90
25811;DHT22;13645;52.460;13.910;2023-07-29T16:02:35;21.50;99.90
25811;DHT22;13645;52.460;13.910;2023-07-29T16:05:02;21.50;99.90
25811;DHT22;13645;52.460;13.910;2023-07-29T16:07:29;21.40;99.90